sensor_id;sensor_type;location;lat;lon;timestamp;P1;durP1;ratioP1;P2;durP2;ratioP2
37339;SDS011;23223;51.006;7.610;2023-08-30T00:00:12;5.15;;;4.32;;
37339;SDS011;23223;51.006;7.610;2023-08-30T00:02:38;6.68;;;4.50;;
37339;SDS011;23223;51.006;7.610;2023-08-30T00:05:03;4.82;;;4.28;;
37339;SDS011;23223;51.006;7.610;2023-08-30T00:07:29;4.25;;;3.85;;
37339;SDS011;23223;51.006;7.610;2023-08-30T00:09:58;8.20;;;4.22;;
37339;SDS011;23223;51.006;7.610;2023-08-30T00:12:24;7.40;;;4.00;;
37339;SDS011;23223;51.006;7.610;2023-08-30T00:14:50;8.98;;;4.20;;
37339;SDS011;23223;51.006;7.610;2023-08-30T00:17:17;4.22;;;3.72;;
37339;SDS011;23223;51.006;7.610;2023-08-30T00:19:42;6.43;;;4.10;;
37339;SDS011;23223;51.006;7.610;2023-08-30T00:22:08;8.38;;;4.00;;
37339;SDS011;23223;51.006;7.610;2023-08-30T00:24:34;6.30;;;4.72;;
37339;SDS011;23223;51.006;7.610;2023-08-30T00:27:00;5.20;;;4.70;;
37339;SDS011;23223;51.006;7.610;2023-08-30T00:29:27;6.68;;;4.35;;
37339;SDS011;23223;51.006;7.610;2023-08-30T00:31:56;6.15;;;4.15;;
37339;SDS011;23223;51.006;7.610;2023-08-30T00:34:21;6.15;;;4.85;;
37339;SDS011;23223;51.006;7.610;2023-08-30T00:36:47;7.90;;;4.07;;
37339;SDS011;23223;51.006;7.610;2023-08-30T00:39:13;9.10;;;4.95;;
37339;SDS011;23223;51.006;7.610;2023-08-30T00:41:39;5.03;;;3.67;;
37339;SDS011;23223;51.006;7.610;2023-08-30T00:44:05;5.38;;;4.22;;
37339;SDS011;23223;51.006;7.610;2023-08-30T00:46:30;4.90;;;4.35;;
37339;SDS011;23223;51.006;7.610;2023-08-30T00:48:58;7.70;;;4.55;;
37339;SDS011;23223;51.006;7.610;2023-08-30T00:51:27;7.65;;;4.13;;
37339;SDS011;23223;51.006;7.610;2023-08-30T00:53:54;6.15;;;4.28;;
37339;SDS011;23223;51.006;7.610;2023-08-30T00:56:20;3.00;;;2.70;;
37339;SDS011;23223;51.006;7.610;2023-08-30T00:58:47;4.75;;;3.80;;
37339;SDS011;23223;51.006;7.610;2023-08-30T01:01:14;4.85;;;3.65;;
37339;SDS011;23223;51.006;7.610;2023-08-30T01:03:41;7.78;;;3.70;;
37339;SDS011;23223;51.006;7.610;2023-08-30T01:06:06;9.25;;;3.88;;
37339;SDS011;23223;51.006;7.610;2023-08-30T01:08:32;7.03;;;3.70;;
37339;SDS011;23223;51.006;7.610;2023-08-30T01:11:11;6.22;;;3.80;;
37339;SDS011;23223;51.006;7.610;2023-08-30T01:13:49;4.75;;;3.75;;
37339;SDS011;23223;51.006;7.610;2023-08-30T01:16:18;3.70;;;2.55;;
37339;SDS011;23223;51.006;7.610;2023-08-30T01:18:46;6.25;;;3.80;;
37339;SDS011;23223;51.006;7.610;2023-08-30T01:21:14;7.32;;;3.92;;
37339;SDS011;23223;51.006;7.610;2023-08-30T01:23:58;7.72;;;3.45;;
37339;SDS011;23223;51.006;7.610;2023-08-30T01:29:16;4.50;;;3.33;;
37339;SDS011;23223;51.006;7.610;2023-08-30T01:31:44;6.65;;;3.33;;
37339;SDS011;23223;51.006;7.610;2023-08-30T01:34:12;6.63;;;3.65;;
37339;SDS011;23223;51.006;7.610;2023-08-30T01:36:40;3.92;;;3.47;;
37339;SDS011;23223;51.006;7.610;2023-08-30T01:39:07;8.70;;;3.75;;
37339;SDS011;23223;51.006;7.610;2023-08-30T01:41:35;3.75;;;3.30;;
37339;SDS011;23223;51.006;7.610;2023-08-30T01:44:02;5.05;;;3.80;;
37339;SDS011;23223;51.006;7.610;2023-08-30T01:46:31;4.60;;;4.07;;
37339;SDS011;23223;51.006;7.610;2023-08-30T01:48:58;6.93;;;3.45;;
37339;SDS011;23223;51.006;7.610;2023-08-30T01:51:26;7.40;;;3.47;;
37339;SDS011;23223;51.006;7.610;2023-08-30T01:53:52;4.50;;;3.60;;
37339;SDS011;23223;51.006;7.610;2023-08-30T01:56:19;6.25;;;3.90;;
37339;SDS011;23223;51.006;7.610;2023-08-30T01:58:44;3.92;;;3.50;;
37339;SDS011;23223;51.006;7.610;2023-08-30T02:01:10;3.55;;;3.00;;
37339;SDS011;23223;51.006;7.610;2023-08-30T02:03:37;3.38;;;2.67;;
37339;SDS011;23223;51.006;7.610;2023-08-30T02:06:04;5.00;;;2.78;;
37339;SDS011;23223;51.006;7.610;2023-08-30T02:08:41;4.43;;;3.75;;
37339;SDS011;23223;51.006;7.610;2023-08-30T02:11:13;4.72;;;3.28;;
37339;SDS011;23223;51.006;7.610;2023-08-30T02:13:44;12.13;;;3.50;;
37339;SDS011;23223;51.006;7.610;2023-08-30T02:16:10;4.53;;;3.47;;
37339;SDS011;23223;51.006;7.610;2023-08-30T02:18:38;3.30;;;2.20;;
37339;SDS011;23223;51.006;7.610;2023-08-30T02:21:05;6.07;;;3.25;;
37339;SDS011;23223;51.006;7.610;2023-08-30T02:23:31;4.93;;;2.90;;
37339;SDS011;23223;51.006;7.610;2023-08-30T02:25:57;6.65;;;3.78;;
37339;SDS011;23223;51.006;7.610;2023-08-30T02:28:22;11.57;;;3.65;;
37339;SDS011;23223;51.006;7.610;2023-08-30T02:30:48;3.95;;;3.20;;
37339;SDS011;23223;51.006;7.610;2023-08-30T02:33:15;5.22;;;2.78;;
37339;SDS011;23223;51.006;7.610;2023-08-30T02:35:40;4.57;;;3.08;;
37339;SDS011;23223;51.006;7.610;2023-08-30T02:38:06;2.72;;;2.17;;
37339;SDS011;23223;51.006;7.610;2023-08-30T02:40:32;6.22;;;3.78;;
37339;SDS011;23223;51.006;7.610;2023-08-30T02:42:58;3.25;;;2.95;;
37339;SDS011;23223;51.006;7.610;2023-08-30T02:45:23;4.50;;;3.72;;
37339;SDS011;23223;51.006;7.610;2023-08-30T02:47:49;10.13;;;3.88;;
37339;SDS011;23223;51.006;7.610;2023-08-30T02:50:15;5.13;;;3.30;;
37339;SDS011;23223;51.006;7.610;2023-08-30T02:52:41;4.43;;;3.88;;
37339;SDS011;23223;51.006;7.610;2023-08-30T02:55:06;3.42;;;2.85;;
37339;SDS011;23223;51.006;7.610;2023-08-30T02:57:32;3.95;;;3.38;;
37339;SDS011;23223;51.006;7.610;2023-08-30T02:59:57;4.93;;;3.22;;
37339;SDS011;23223;51.006;7.610;2023-08-30T03:02:23;3.90;;;3.50;;
37339;SDS011;23223;51.006;7.610;2023-08-30T03:04:48;6.93;;;4.00;;
37339;SDS011;23223;51.006;7.610;2023-08-30T03:07:14;9.75;;;3.85;;
37339;SDS011;23223;51.006;7.610;2023-08-30T03:09:40;5.32;;;3.45;;
37339;SDS011;23223;51.006;7.610;2023-08-30T03:12:05;6.95;;;4.00;;
37339;SDS011;23223;51.006;7.610;2023-08-30T03:14:31;6.20;;;3.55;;
37339;SDS011;23223;51.006;7.610;2023-08-30T03:16:57;11.00;;;4.63;;
37339;SDS011;23223;51.006;7.610;2023-08-30T03:19:23;6.38;;;3.08;;
37339;SDS011;23223;51.006;7.610;2023-08-30T03:21:48;3.97;;;3.58;;
37339;SDS011;23223;51.006;7.610;2023-08-30T03:24:14;4.47;;;3.50;;
37339;SDS011;23223;51.006;7.610;2023-08-30T03:26:42;6.03;;;3.25;;
37339;SDS011;23223;51.006;7.610;2023-08-30T03:29:08;8.00;;;4.07;;
37339;SDS011;23223;51.006;7.610;2023-08-30T03:31:34;7.53;;;4.15;;
37339;SDS011;23223;51.006;7.610;2023-08-30T03:33:59;6.72;;;3.53;;
37339;SDS011;23223;51.006;7.610;2023-08-30T03:36:25;10.02;;;4.68;;
37339;SDS011;23223;51.006;7.610;2023-08-30T03:38:51;9.18;;;3.28;;
37339;SDS011;23223;51.006;7.610;2023-08-30T03:41:17;5.32;;;4.28;;
37339;SDS011;23223;51.006;7.610;2023-08-30T03:43:43;8.60;;;4.15;;
37339;SDS011;23223;51.006;7.610;2023-08-30T03:46:11;6.38;;;4.35;;
37339;SDS011;23223;51.006;7.610;2023-08-30T03:48:37;5.10;;;2.97;;
37339;SDS011;23223;51.006;7.610;2023-08-30T03:51:03;12.52;;;3.80;;
37339;SDS011;23223;51.006;7.610;2023-08-30T03:53:28;6.45;;;3.78;;
37339;SDS011;23223;51.006;7.610;2023-08-30T03:55:55;3.47;;;3.15;;
37339;SDS011;23223;51.006;7.610;2023-08-30T03:58:20;2.53;;;2.30;;
37339;SDS011;23223;51.006;7.610;2023-08-30T04:00:46;4.75;;;3.10;;
37339;SDS011;23223;51.006;7.610;2023-08-30T04:03:12;6.88;;;3.45;;
37339;SDS011;23223;51.006;7.610;2023-08-30T04:05:39;6.07;;;3.45;;
37339;SDS011;23223;51.006;7.610;2023-08-30T04:08:06;5.45;;;3.08;;
37339;SDS011;23223;51.006;7.610;2023-08-30T04:10:36;4.88;;;3.80;;
37339;SDS011;23223;51.006;7.610;2023-08-30T04:13:05;3.35;;;2.92;;
37339;SDS011;23223;51.006;7.610;2023-08-30T04:15:35;4.07;;;3.35;;
37339;SDS011;23223;51.006;7.610;2023-08-30T04:18:02;5.28;;;3.50;;
37339;SDS011;23223;51.006;7.610;2023-08-30T04:20:29;5.93;;;3.70;;
37339;SDS011;23223;51.006;7.610;2023-08-30T04:22:55;8.48;;;3.88;;
37339;SDS011;23223;51.006;7.610;2023-08-30T04:25:22;8.18;;;4.18;;
37339;SDS011;23223;51.006;7.610;2023-08-30T04:27:48;9.85;;;4.28;;
37339;SDS011;23223;51.006;7.610;2023-08-30T04:30:14;6.35;;;4.55;;
37339;SDS011;23223;51.006;7.610;2023-08-30T04:32:41;8.43;;;4.47;;
37339;SDS011;23223;51.006;7.610;2023-08-30T04:35:06;6.75;;;3.78;;
37339;SDS011;23223;51.006;7.610;2023-08-30T04:37:32;9.40;;;4.50;;
37339;SDS011;23223;51.006;7.610;2023-08-30T04:39:58;10.15;;;4.15;;
37339;SDS011;23223;51.006;7.610;2023-08-30T04:42:24;5.72;;;4.57;;
37339;SDS011;23223;51.006;7.610;2023-08-30T04:44:50;9.48;;;5.10;;
37339;SDS011;23223;51.006;7.610;2023-08-30T04:47:16;12.68;;;5.45;;
37339;SDS011;23223;51.006;7.610;2023-08-30T04:49:42;10.07;;;4.60;;
37339;SDS011;23223;51.006;7.610;2023-08-30T04:52:07;8.25;;;4.93;;
37339;SDS011;23223;51.006;7.610;2023-08-30T04:54:33;10.05;;;4.78;;
37339;SDS011;23223;51.006;7.610;2023-08-30T04:56:58;10.40;;;5.45;;
37339;SDS011;23223;51.006;7.610;2023-08-30T04:59:24;4.47;;;4.00;;
37339;SDS011;23223;51.006;7.610;2023-08-30T05:01:53;7.40;;;5.40;;
37339;SDS011;23223;51.006;7.610;2023-08-30T05:04:18;10.20;;;5.78;;
37339;SDS011;23223;51.006;7.610;2023-08-30T05:06:44;5.93;;;5.32;;
37339;SDS011;23223;51.006;7.610;2023-08-30T05:09:09;6.88;;;5.90;;
37339;SDS011;23223;51.006;7.610;2023-08-30T05:11:35;6.85;;;5.85;;
37339;SDS011;23223;51.006;7.610;2023-08-30T05:14:00;4.32;;;3.75;;
37339;SDS011;23223;51.006;7.610;2023-08-30T05:16:26;7.43;;;6.45;;
37339;SDS011;23223;51.006;7.610;2023-08-30T05:18:52;9.13;;;5.97;;
37339;SDS011;23223;51.006;7.610;2023-08-30T05:21:17;7.95;;;5.38;;
37339;SDS011;23223;51.006;7.610;2023-08-30T05:23:43;8.55;;;6.00;;
37339;SDS011;23223;51.006;7.610;2023-08-30T05:26:09;11.40;;;5.43;;
37339;SDS011;23223;51.006;7.610;2023-08-30T05:28:39;12.00;;;5.35;;
37339;SDS011;23223;51.006;7.610;2023-08-30T05:31:04;9.60;;;5.30;;
37339;SDS011;23223;51.006;7.610;2023-08-30T05:33:33;5.10;;;4.38;;
37339;SDS011;23223;51.006;7.610;2023-08-30T05:35:58;6.80;;;5.97;;
37339;SDS011;23223;51.006;7.610;2023-08-30T05:38:24;8.75;;;6.32;;
37339;SDS011;23223;51.006;7.610;2023-08-30T05:40:50;6.28;;;5.45;;
37339;SDS011;23223;51.006;7.610;2023-08-30T05:43:15;7.20;;;5.60;;
37339;SDS011;23223;51.006;7.610;2023-08-30T05:45:41;9.38;;;6.65;;
37339;SDS011;23223;51.006;7.610;2023-08-30T05:48:06;7.75;;;6.47;;
37339;SDS011;23223;51.006;7.610;2023-08-30T05:50:32;10.93;;;7.28;;
37339;SDS011;23223;51.006;7.610;2023-08-30T05:52:58;11.30;;;7.43;;
37339;SDS011;23223;51.006;7.610;2023-08-30T05:55:23;8.48;;;7.53;;
37339;SDS011;23223;51.006;7.610;2023-08-30T05:57:49;5.88;;;5.28;;
37339;SDS011;23223;51.006;7.610;2023-08-30T06:00:14;13.88;;;6.85;;
37339;SDS011;23223;51.006;7.610;2023-08-30T06:02:40;11.40;;;7.88;;
37339;SDS011;23223;51.006;7.610;2023-08-30T06:05:06;9.10;;;7.78;;
37339;SDS011;23223;51.006;7.610;2023-08-30T06:07:32;9.85;;;7.93;;
37339;SDS011;23223;51.006;7.610;2023-08-30T06:09:58;12.82;;;7.90;;
37339;SDS011;23223;51.006;7.610;2023-08-30T06:12:23;12.15;;;8.20;;
37339;SDS011;23223;51.006;7.610;2023-08-30T06:14:50;11.98;;;9.40;;
37339;SDS011;23223;51.006;7.610;2023-08-30T06:17:18;15.13;;;8.45;;
37339;SDS011;23223;51.006;7.610;2023-08-30T06:19:47;12.35;;;9.32;;
37339;SDS011;23223;51.006;7.610;2023-08-30T06:22:13;16.75;;;9.07;;
37339;SDS011;23223;51.006;7.610;2023-08-30T06:24:39;7.60;;;5.90;;
37339;SDS011;23223;51.006;7.610;2023-08-30T06:27:04;14.27;;;8.88;;
37339;SDS011;23223;51.006;7.610;2023-08-30T06:29:30;7.93;;;6.32;;
37339;SDS011;23223;51.006;7.610;2023-08-30T06:31:57;15.98;;;9.43;;
37339;SDS011;23223;51.006;7.610;2023-08-30T06:34:23;13.48;;;8.73;;
37339;SDS011;23223;51.006;7.610;2023-08-30T06:36:49;9.52;;;8.52;;
37339;SDS011;23223;51.006;7.610;2023-08-30T06:39:14;10.45;;;8.43;;
37339;SDS011;23223;51.006;7.610;2023-08-30T06:41:42;10.38;;;7.05;;
37339;SDS011;23223;51.006;7.610;2023-08-30T06:44:08;10.07;;;8.13;;
37339;SDS011;23223;51.006;7.610;2023-08-30T06:46:33;15.20;;;7.40;;
37339;SDS011;23223;51.006;7.610;2023-08-30T06:48:59;15.50;;;8.20;;
37339;SDS011;23223;51.006;7.610;2023-08-30T06:51:24;12.32;;;8.02;;
37339;SDS011;23223;51.006;7.610;2023-08-30T06:53:50;12.02;;;8.20;;
37339;SDS011;23223;51.006;7.610;2023-08-30T06:56:16;7.72;;;5.38;;
37339;SDS011;23223;51.006;7.610;2023-08-30T06:58:44;6.63;;;3.75;;
37339;SDS011;23223;51.006;7.610;2023-08-30T07:01:10;9.77;;;8.65;;
37339;SDS011;23223;51.006;7.610;2023-08-30T07:03:36;11.45;;;8.45;;
37339;SDS011;23223;51.006;7.610;2023-08-30T07:06:01;12.07;;;8.50;;
37339;SDS011;23223;51.006;7.610;2023-08-30T07:08:27;12.18;;;7.95;;
37339;SDS011;23223;51.006;7.610;2023-08-30T07:10:52;9.18;;;6.00;;
37339;SDS011;23223;51.006;7.610;2023-08-30T07:13:18;5.15;;;4.40;;
37339;SDS011;23223;51.006;7.610;2023-08-30T07:15:43;4.28;;;3.88;;
37339;SDS011;23223;51.006;7.610;2023-08-30T07:18:09;9.63;;;5.72;;
37339;SDS011;23223;51.006;7.610;2023-08-30T07:20:35;12.68;;;9.45;;
37339;SDS011;23223;51.006;7.610;2023-08-30T07:23:02;11.85;;;8.95;;
37339;SDS011;23223;51.006;7.610;2023-08-30T07:25:29;11.13;;;9.40;;
37339;SDS011;23223;51.006;7.610;2023-08-30T07:27:56;13.82;;;11.00;;
37339;SDS011;23223;51.006;7.610;2023-08-30T07:30:21;14.95;;;10.75;;
37339;SDS011;23223;51.006;7.610;2023-08-30T07:32:47;13.13;;;9.30;;
37339;SDS011;23223;51.006;7.610;2023-08-30T07:35:13;11.52;;;8.93;;
37339;SDS011;23223;51.006;7.610;2023-08-30T07:37:39;12.90;;;8.93;;
37339;SDS011;23223;51.006;7.610;2023-08-30T07:40:04;9.02;;;8.05;;
37339;SDS011;23223;51.006;7.610;2023-08-30T07:42:31;11.10;;;9.27;;
37339;SDS011;23223;51.006;7.610;2023-08-30T07:44:56;10.25;;;7.28;;
37339;SDS011;23223;51.006;7.610;2023-08-30T07:47:22;11.27;;;8.23;;
37339;SDS011;23223;51.006;7.610;2023-08-30T07:49:47;10.88;;;8.38;;
37339;SDS011;23223;51.006;7.610;2023-08-30T07:52:13;13.10;;;9.40;;
37339;SDS011;23223;51.006;7.610;2023-08-30T07:54:39;13.77;;;8.05;;
37339;SDS011;23223;51.006;7.610;2023-08-30T07:57:05;14.60;;;8.90;;
37339;SDS011;23223;51.006;7.610;2023-08-30T07:59:33;12.18;;;9.32;;
37339;SDS011;23223;51.006;7.610;2023-08-30T08:01:59;12.65;;;8.88;;
37339;SDS011;23223;51.006;7.610;2023-08-30T08:04:25;11.02;;;7.60;;
37339;SDS011;23223;51.006;7.610;2023-08-30T08:06:50;14.70;;;7.78;;
37339;SDS011;23223;51.006;7.610;2023-08-30T08:09:17;9.38;;;8.18;;
37339;SDS011;23223;51.006;7.610;2023-08-30T08:11:42;8.27;;;7.40;;
37339;SDS011;23223;51.006;7.610;2023-08-30T08:14:10;6.15;;;4.72;;
37339;SDS011;23223;51.006;7.610;2023-08-30T08:16:36;8.82;;;7.15;;
37339;SDS011;23223;51.006;7.610;2023-08-30T08:19:02;11.77;;;8.02;;
37339;SDS011;23223;51.006;7.610;2023-08-30T08:21:27;8.23;;;6.55;;
37339;SDS011;23223;51.006;7.610;2023-08-30T08:23:53;10.52;;;7.05;;
37339;SDS011;23223;51.006;7.610;2023-08-30T08:26:19;11.25;;;8.10;;
37339;SDS011;23223;51.006;7.610;2023-08-30T08:28:44;7.40;;;6.45;;
37339;SDS011;23223;51.006;7.610;2023-08-30T08:31:10;12.40;;;6.97;;
37339;SDS011;23223;51.006;7.610;2023-08-30T08:33:36;7.35;;;5.22;;
37339;SDS011;23223;51.006;7.610;2023-08-30T08:36:01;9.07;;;6.22;;
37339;SDS011;23223;51.006;7.610;2023-08-30T08:38:27;11.57;;;6.45;;
37339;SDS011;23223;51.006;7.610;2023-08-30T08:40:53;9.10;;;6.63;;
37339;SDS011;23223;51.006;7.610;2023-08-30T08:43:37;8.10;;;4.90;;
37339;SDS011;23223;51.006;7.610;2023-08-30T08:46:04;8.55;;;5.78;;
37339;SDS011;23223;51.006;7.610;2023-08-30T08:48:33;7.22;;;5.68;;
37339;SDS011;23223;51.006;7.610;2023-08-30T08:51:05;5.47;;;4.90;;
37339;SDS011;23223;51.006;7.610;2023-08-30T08:53:31;7.70;;;5.47;;
37339;SDS011;23223;51.006;7.610;2023-08-30T08:55:58;5.45;;;4.70;;
37339;SDS011;23223;51.006;7.610;2023-08-30T08:58:31;5.50;;;3.92;;
37339;SDS011;23223;51.006;7.610;2023-08-30T09:01:18;7.68;;;4.38;;
37339;SDS011;23223;51.006;7.610;2023-08-30T09:03:44;5.97;;;4.57;;
37339;SDS011;23223;51.006;7.610;2023-08-30T09:06:09;5.38;;;4.50;;
37339;SDS011;23223;51.006;7.610;2023-08-30T09:08:39;5.95;;;4.03;;
37339;SDS011;23223;51.006;7.610;2023-08-30T09:11:04;4.30;;;3.15;;
37339;SDS011;23223;51.006;7.610;2023-08-30T09:13:30;7.32;;;5.10;;
37339;SDS011;23223;51.006;7.610;2023-08-30T09:15:56;6.97;;;4.10;;
37339;SDS011;23223;51.006;7.610;2023-08-30T09:18:22;5.20;;;4.25;;
37339;SDS011;23223;51.006;7.610;2023-08-30T09:20:52;5.82;;;3.58;;
37339;SDS011;23223;51.006;7.610;2023-08-30T09:23:21;5.28;;;3.85;;
37339;SDS011;23223;51.006;7.610;2023-08-30T09:25:54;6.43;;;4.13;;
37339;SDS011;23223;51.006;7.610;2023-08-30T09:28:20;4.35;;;3.70;;
37339;SDS011;23223;51.006;7.610;2023-08-30T09:30:49;4.93;;;4.20;;
37339;SDS011;23223;51.006;7.610;2023-08-30T09:33:16;5.32;;;3.53;;
37339;SDS011;23223;51.006;7.610;2023-08-30T09:36:09;5.47;;;3.15;;
37339;SDS011;23223;51.006;7.610;2023-08-30T09:38:36;5.95;;;3.40;;
37339;SDS011;23223;51.006;7.610;2023-08-30T09:41:08;4.35;;;3.50;;
37339;SDS011;23223;51.006;7.610;2023-08-30T09:43:34;4.32;;;2.90;;
37339;SDS011;23223;51.006;7.610;2023-08-30T09:46:03;4.93;;;2.80;;
37339;SDS011;23223;51.006;7.610;2023-08-30T09:48:30;8.20;;;3.22;;
37339;SDS011;23223;51.006;7.610;2023-08-30T09:50:57;6.78;;;4.15;;
37339;SDS011;23223;51.006;7.610;2023-08-30T09:53:25;5.93;;;2.90;;
37339;SDS011;23223;51.006;7.610;2023-08-30T09:55:54;5.50;;;3.28;;
37339;SDS011;23223;51.006;7.610;2023-08-30T09:58:23;6.75;;;3.28;;
37339;SDS011;23223;51.006;7.610;2023-08-30T10:00:52;7.68;;;3.35;;
37339;SDS011;23223;51.006;7.610;2023-08-30T10:03:19;7.57;;;3.95;;
37339;SDS011;23223;51.006;7.610;2023-08-30T10:05:48;3.83;;;3.30;;
37339;SDS011;23223;51.006;7.610;2023-08-30T10:08:14;6.35;;;4.13;;
37339;SDS011;23223;51.006;7.610;2023-08-30T10:10:45;6.25;;;4.75;;
37339;SDS011;23223;51.006;7.610;2023-08-30T10:13:13;5.45;;;3.28;;
37339;SDS011;23223;51.006;7.610;2023-08-30T10:15:41;4.28;;;3.20;;
37339;SDS011;23223;51.006;7.610;2023-08-30T10:18:11;9.52;;;3.42;;
37339;SDS011;23223;51.006;7.610;2023-08-30T10:20:40;5.22;;;3.05;;
37339;SDS011;23223;51.006;7.610;2023-08-30T10:23:06;3.50;;;2.53;;
37339;SDS011;23223;51.006;7.610;2023-08-30T10:25:33;4.43;;;3.05;;
37339;SDS011;23223;51.006;7.610;2023-08-30T10:27:59;5.10;;;2.33;;
37339;SDS011;23223;51.006;7.610;2023-08-30T10:30:26;5.25;;;2.75;;
37339;SDS011;23223;51.006;7.610;2023-08-30T10:32:52;4.13;;;2.65;;
37339;SDS011;23223;51.006;7.610;2023-08-30T10:35:18;4.05;;;2.80;;
37339;SDS011;23223;51.006;7.610;2023-08-30T10:37:53;2.35;;;2.00;;
37339;SDS011;23223;51.006;7.610;2023-08-30T10:40:21;4.68;;;2.15;;
37339;SDS011;23223;51.006;7.610;2023-08-30T10:42:47;6.60;;;2.95;;
37339;SDS011;23223;51.006;7.610;2023-08-30T10:45:23;5.30;;;3.97;;
37339;SDS011;23223;51.006;7.610;2023-08-30T10:47:53;6.53;;;2.85;;
37339;SDS011;23223;51.006;7.610;2023-08-30T10:50:32;4.95;;;2.55;;
37339;SDS011;23223;51.006;7.610;2023-08-30T10:52:59;5.20;;;2.90;;
37339;SDS011;23223;51.006;7.610;2023-08-30T10:55:24;3.00;;;2.33;;
37339;SDS011;23223;51.006;7.610;2023-08-30T10:58:01;5.10;;;2.20;;
37339;SDS011;23223;51.006;7.610;2023-08-30T11:00:28;4.07;;;2.55;;
37339;SDS011;23223;51.006;7.610;2023-08-30T11:02:55;4.10;;;2.90;;
37339;SDS011;23223;51.006;7.610;2023-08-30T11:05:22;2.28;;;1.90;;
37339;SDS011;23223;51.006;7.610;2023-08-30T11:07:49;3.97;;;2.63;;
37339;SDS011;23223;51.006;7.610;2023-08-30T11:10:16;3.00;;;2.42;;
37339;SDS011;23223;51.006;7.610;2023-08-30T11:12:42;4.78;;;2.80;;
37339;SDS011;23223;51.006;7.610;2023-08-30T11:15:09;3.90;;;2.70;;
37339;SDS011;23223;51.006;7.610;2023-08-30T11:17:39;5.63;;;2.97;;
37339;SDS011;23223;51.006;7.610;2023-08-30T11:20:08;10.65;;;3.55;;
37339;SDS011;23223;51.006;7.610;2023-08-30T11:22:42;3.83;;;1.92;;
37339;SDS011;23223;51.006;7.610;2023-08-30T11:25:09;5.55;;;3.70;;
37339;SDS011;23223;51.006;7.610;2023-08-30T11:27:37;4.00;;;2.65;;
37339;SDS011;23223;51.006;7.610;2023-08-30T11:30:03;4.28;;;2.97;;
37339;SDS011;23223;51.006;7.610;2023-08-30T11:32:34;7.75;;;4.05;;
37339;SDS011;23223;51.006;7.610;2023-08-30T11:35:01;7.35;;;4.03;;
37339;SDS011;23223;51.006;7.610;2023-08-30T11:37:27;6.07;;;4.00;;
37339;SDS011;23223;51.006;7.610;2023-08-30T11:39:53;6.15;;;3.20;;
37339;SDS011;23223;51.006;7.610;2023-08-30T11:42:20;6.53;;;4.03;;
37339;SDS011;23223;51.006;7.610;2023-08-30T11:44:46;10.13;;;4.43;;
37339;SDS011;23223;51.006;7.610;2023-08-30T11:47:19;6.85;;;4.43;;
37339;SDS011;23223;51.006;7.610;2023-08-30T11:49:48;5.70;;;4.35;;
37339;SDS011;23223;51.006;7.610;2023-08-30T11:52:17;7.28;;;4.15;;
37339;SDS011;23223;51.006;7.610;2023-08-30T11:54:45;5.90;;;3.92;;
37339;SDS011;23223;51.006;7.610;2023-08-30T11:57:12;7.95;;;4.40;;
37339;SDS011;23223;51.006;7.610;2023-08-30T11:59:38;5.82;;;3.15;;
37339;SDS011;23223;51.006;7.610;2023-08-30T12:02:04;4.15;;;3.55;;
37339;SDS011;23223;51.006;7.610;2023-08-30T12:04:32;7.57;;;4.70;;
37339;SDS011;23223;51.006;7.610;2023-08-30T12:07:04;7.30;;;4.00;;
37339;SDS011;23223;51.006;7.610;2023-08-30T12:09:30;6.95;;;4.22;;
37339;SDS011;23223;51.006;7.610;2023-08-30T12:12:06;5.68;;;4.05;;
37339;SDS011;23223;51.006;7.610;2023-08-30T12:14:35;5.78;;;4.68;;
37339;SDS011;23223;51.006;7.610;2023-08-30T12:17:02;5.53;;;3.75;;
37339;SDS011;23223;51.006;7.610;2023-08-30T12:19:28;5.03;;;4.00;;
37339;SDS011;23223;51.006;7.610;2023-08-30T12:22:02;8.57;;;4.60;;
37339;SDS011;23223;51.006;7.610;2023-08-30T12:24:29;6.63;;;4.68;;
37339;SDS011;23223;51.006;7.610;2023-08-30T12:27:05;8.60;;;3.60;;
37339;SDS011;23223;51.006;7.610;2023-08-30T12:29:31;9.00;;;3.92;;
37339;SDS011;23223;51.006;7.610;2023-08-30T12:31:56;5.45;;;3.50;;
37339;SDS011;23223;51.006;7.610;2023-08-30T12:34:22;5.90;;;3.45;;
37339;SDS011;23223;51.006;7.610;2023-08-30T12:36:47;4.88;;;3.63;;
37339;SDS011;23223;51.006;7.610;2023-08-30T12:39:13;6.90;;;3.40;;
37339;SDS011;23223;51.006;7.610;2023-08-30T12:41:38;4.82;;;3.70;;
37339;SDS011;23223;51.006;7.610;2023-08-30T12:44:06;7.97;;;3.78;;
37339;SDS011;23223;51.006;7.610;2023-08-30T12:46:32;4.72;;;3.05;;
37339;SDS011;23223;51.006;7.610;2023-08-30T12:48:57;5.32;;;3.47;;
37339;SDS011;23223;51.006;7.610;2023-08-30T12:51:23;5.07;;;3.13;;
37339;SDS011;23223;51.006;7.610;2023-08-30T12:53:48;5.13;;;3.38;;
37339;SDS011;23223;51.006;7.610;2023-08-30T12:56:14;5.70;;;3.80;;
37339;SDS011;23223;51.006;7.610;2023-08-30T12:58:39;6.15;;;2.78;;
37339;SDS011;23223;51.006;7.610;2023-08-30T13:01:05;6.30;;;3.65;;
37339;SDS011;23223;51.006;7.610;2023-08-30T13:03:31;4.32;;;2.30;;
37339;SDS011;23223;51.006;7.610;2023-08-30T13:05:56;3.15;;;2.30;;
37339;SDS011;23223;51.006;7.610;2023-08-30T13:08:23;3.92;;;2.50;;
37339;SDS011;23223;51.006;7.610;2023-08-30T13:10:49;2.75;;;1.90;;
37339;SDS011;23223;51.006;7.610;2023-08-30T13:13:15;4.50;;;1.50;;
37339;SDS011;23223;51.006;7.610;2023-08-30T13:15:40;3.97;;;1.38;;
37339;SDS011;23223;51.006;7.610;2023-08-30T13:18:06;2.78;;;1.30;;
37339;SDS011;23223;51.006;7.610;2023-08-30T13:20:32;1.90;;;1.35;;
37339;SDS011;23223;51.006;7.610;2023-08-30T13:23:03;1.55;;;1.38;;
37339;SDS011;23223;51.006;7.610;2023-08-30T13:25:28;2.45;;;1.70;;
37339;SDS011;23223;51.006;7.610;2023-08-30T13:27:54;2.25;;;1.38;;
37339;SDS011;23223;51.006;7.610;2023-08-30T13:30:22;4.10;;;1.40;;
37339;SDS011;23223;51.006;7.610;2023-08-30T13:32:55;1.67;;;0.93;;
37339;SDS011;23223;51.006;7.610;2023-08-30T13:35:20;2.97;;;1.10;;
37339;SDS011;23223;51.006;7.610;2023-08-30T13:37:49;1.98;;;1.02;;
37339;SDS011;23223;51.006;7.610;2023-08-30T13:40:15;1.50;;;0.93;;
37339;SDS011;23223;51.006;7.610;2023-08-30T13:42:41;5.40;;;1.45;;
37339;SDS011;23223;51.006;7.610;2023-08-30T13:45:10;3.92;;;1.20;;
37339;SDS011;23223;51.006;7.610;2023-08-30T13:47:38;1.25;;;1.00;;
37339;SDS011;23223;51.006;7.610;2023-08-30T13:50:06;1.08;;;0.95;;
37339;SDS011;23223;51.006;7.610;2023-08-30T13:52:36;4.82;;;1.80;;
37339;SDS011;23223;51.006;7.610;2023-08-30T13:55:01;1.75;;;1.45;;
37339;SDS011;23223;51.006;7.610;2023-08-30T13:57:27;2.15;;;1.08;;
37339;SDS011;23223;51.006;7.610;2023-08-30T13:59:53;1.17;;;1.08;;
37339;SDS011;23223;51.006;7.610;2023-08-30T14:02:19;1.65;;;1.05;;
37339;SDS011;23223;51.006;7.610;2023-08-30T14:04:44;2.30;;;1.10;;
37339;SDS011;23223;51.006;7.610;2023-08-30T14:07:10;1.38;;;1.10;;
37339;SDS011;23223;51.006;7.610;2023-08-30T14:09:37;1.33;;;1.13;;
37339;SDS011;23223;51.006;7.610;2023-08-30T14:12:03;1.30;;;1.20;;
37339;SDS011;23223;51.006;7.610;2023-08-30T14:14:29;3.55;;;1.02;;
37339;SDS011;23223;51.006;7.610;2023-08-30T14:16:54;1.42;;;1.13;;
37339;SDS011;23223;51.006;7.610;2023-08-30T14:19:20;3.05;;;1.60;;
37339;SDS011;23223;51.006;7.610;2023-08-30T14:21:46;2.75;;;1.33;;
37339;SDS011;23223;51.006;7.610;2023-08-30T14:24:12;2.53;;;1.60;;
37339;SDS011;23223;51.006;7.610;2023-08-30T14:26:37;2.60;;;1.20;;
37339;SDS011;23223;51.006;7.610;2023-08-30T14:29:03;4.97;;;1.45;;
37339;SDS011;23223;51.006;7.610;2023-08-30T14:31:28;1.88;;;1.23;;
37339;SDS011;23223;51.006;7.610;2023-08-30T14:33:55;1.65;;;1.20;;
37339;SDS011;23223;51.006;7.610;2023-08-30T14:36:24;0.75;;;0.70;;
37339;SDS011;23223;51.006;7.610;2023-08-30T14:38:50;1.17;;;0.93;;
37339;SDS011;23223;51.006;7.610;2023-08-30T14:41:16;1.33;;;1.13;;
37339;SDS011;23223;51.006;7.610;2023-08-30T14:43:42;1.63;;;1.20;;
37339;SDS011;23223;51.006;7.610;2023-08-30T14:46:08;1.55;;;1.45;;